Time;durP1;ratioP1;P1;durP2;ratioP2;P2;SDS_P1;SDS_P2;PMS_P1;PMS_P2;Temp;Humidity;BMP_temperature;BMP_pressure;BME280_temperature;BME280_humidity;BME280_pressure;Samples;Min_cycle;Max_cycle;Signal;HPM_P1;HPM_P2
2021/09/09 00:00:14;;;;;;;11.17;7.53;;;20.60;95.50;;;;;;5005685;28;20452;-69
2021/09/09 00:02:41;;;;;;;11.63;8.10;;;20.60;95.50;;;;;;4986576;28;20467;-70
2021/09/09 00:05:08;;;;;;;8.50;7.70;;;20.50;95.50;;;;;;5005942;28;20449;-70
2021/09/09 00:07:35;;;;;;;11.30;8.83;;;20.50;95.70;;;;;;4985227;28;20232;-69
2021/09/09 00:10:03;;;;;;;11.60;9.00;;;20.50;95.50;;;;;;4992473;28;20485;-69
2021/09/09 00:12:29;;;;;;;11.23;8.40;;;20.50;95.50;;;;;;4992727;28;20462;-70
2021/09/09 00:14:56;;;;;;;14.10;9.97;;;20.30;96.00;;;;;;4992936;28;20480;-70
2021/09/09 00:17:22;;;;;;;9.03;8.13;;;20.30;95.60;;;;;;5009182;28;20484;-70
2021/09/09 00:19:48;;;;;;;9.73;8.73;;;20.30;95.60;;;;;;5009347;28;21035;-70
2021/09/09 00:22:18;;;;;;;9.50;8.33;;;20.30;95.60;;;;;;4993103;28;20225;-70
2021/09/09 00:24:43;;;;;;;10.20;8.20;;;20.30;95.60;;;;;;4993009;28;20900;-69
2021/09/09 00:27:11;;;;;;;9.73;8.23;;;20.30;95.60;;;;;;5008981;28;20228;-69
2021/09/09 00:29:38;;;;;;;9.53;8.07;;;20.30;95.60;;;;;;4993400;28;20476;-69
2021/09/09 00:32:04;;;;;;;10.80;8.53;;;20.30;95.70;;;;;;4992543;28;20488;-69
2021/09/09 00:34:31;;;;;;;9.80;8.80;;;20.20;95.60;;;;;;5010798;28;20221;-70
2021/09/09 00:36:57;;;;;;;12.77;8.90;;;20.20;95.70;;;;;;4997258;28;20467;-68
2021/09/09 00:39:22;;;;;;;11.67;8.67;;;20.20;95.70;;;;;;5009766;28;20219;-69
2021/09/09 00:41:48;;;;;;;10.63;8.30;;;20.20;95.70;;;;;;5028249;28;20251;-70
2021/09/09 00:44:23;;;;;;;11.60;7.93;;;20.20;95.70;;;;;;5012340;28;20216;-69
2021/09/09 00:47:06;;;;;;;9.97;8.87;;;20.00;95.70;;;;;;5007776;28;20220;-69
2021/09/09 00:49:34;;;;;;;16.20;9.27;;;19.90;95.90;;;;;;5003781;28;20455;-69
2021/09/09 00:52:00;;;;;;;10.90;7.70;;;19.90;95.90;;;;;;4991473;28;20502;-70
2021/09/09 00:54:26;;;;;;;9.67;8.60;;;19.90;95.90;;;;;;5011972;28;20455;-70
2021/09/09 00:56:52;;;;;;;11.80;8.30;;;19.90;95.90;;;;;;5012079;28;20501;-70
2021/09/09 00:59:19;;;;;;;12.20;8.90;;;19.80;96.20;;;;;;5001829;28;20224;-70
2021/09/09 01:01:46;;;;;;;9.70;8.23;;;19.80;96.10;;;;;;4991640;28;20444;-69
2021/09/09 01:04:12;;;;;;;11.43;9.27;;;19.90;96.10;;;;;;5008773;28;20474;-70
2021/09/09 01:06:38;;;;;;;12.30;8.50;;;19.80;96.10;;;;;;5009314;28;20452;-70
2021/09/09 01:09:04;;;;;;;9.73;8.73;;;19.80;96.10;;;;;;5008039;28;20467;-70
2021/09/09 01:11:29;;;;;;;12.63;8.90;;;19.80;96.20;;;;;;5011290;28;20600;-69
2021/09/09 01:14:05;;;;;;;12.23;9.30;;;19.80;96.10;;;;;;5013612;28;20237;-69
2021/09/09 01:16:30;;;;;;;13.03;9.23;;;19.70;96.00;;;;;;5006793;28;20233;-69
2021/09/09 01:18:56;;;;;;;10.00;8.77;;;19.70;96.20;;;;;;5013389;28;20467;-70
2021/09/09 01:21:23;;;;;;;12.83;9.17;;;19.70;96.20;;;;;;5013548;28;20714;-70
2021/09/09 01:23:49;;;;;;;12.40;8.80;;;19.70;96.20;;;;;;5015535;28;20243;-70
2021/09/09 01:26:15;;;;;;;12.70;8.80;;;19.70;96.20;;;;;;5027519;28;20456;-69
2021/09/09 01:28:41;;;;;;;11.10;9.10;;;19.70;96.30;;;;;;4995823;28;20479;-70
2021/09/09 01:31:07;;;;;;;12.20;8.97;;;19.70;96.30;;;;;;5009672;28;20217;-70
2021/09/09 01:33:33;;;;;;;10.67;8.97;;;19.70;96.20;;;;;;5012196;28;20467;-70
2021/09/09 01:35:58;;;;;;;11.27;8.40;;;19.70;96.30;;;;;;4998295;28;20213;-69
2021/09/09 01:38:24;;;;;;;11.07;8.90;;;19.60;96.20;;;;;;5027667;28;20235;-69
2021/09/09 01:40:50;;;;;;;11.23;9.77;;;19.60;96.30;;;;;;5011769;28;20235;-69
2021/09/09 01:43:16;;;;;;;15.43;9.17;;;19.60;96.20;;;;;;4994603;28;20295;-70
2021/09/09 01:45:42;;;;;;;11.30;9.50;;;19.60;96.30;;;;;;5012671;28;20870;-70
2021/09/09 01:48:08;;;;;;;8.63;7.73;;;19.60;96.30;;;;;;4994371;28;20304;-69
2021/09/09 01:50:35;;;;;;;10.60;8.27;;;19.40;96.60;;;;;;4992135;28;20469;-69
2021/09/09 01:53:01;;;;;;;11.70;8.57;;;19.40;96.40;;;;;;5009234;28;20504;-69
2021/09/09 01:55:27;;;;;;;10.50;8.50;;;19.50;96.50;;;;;;5015557;28;20494;-70
2021/09/09 01:57:53;;;;;;;11.93;9.03;;;19.40;96.50;;;;;;5023405;28;20301;-69
2021/09/09 02:00:18;;;;;;;10.87;8.73;;;19.40;96.40;;;;;;5011934;28;20279;-70
2021/09/09 02:02:44;;;;;;;13.50;9.67;;;19.40;96.50;;;;;;4994635;28;20220;-70
2021/09/09 02:05:11;;;;;;;11.33;8.70;;;19.40;96.40;;;;;;5011433;28;20217;-70
2021/09/09 02:07:36;;;;;;;10.07;9.00;;;19.20;96.70;;;;;;5011313;28;20225;-69
2021/09/09 02:10:03;;;;;;;10.60;8.53;;;19.30;96.70;;;;;;4994891;28;20441;-69
2021/09/09 02:12:28;;;;;;;12.20;8.97;;;19.30;96.70;;;;;;4994347;28;20224;-69
2021/09/09 02:14:54;;;;;;;9.60;8.40;;;19.30;96.60;;;;;;5011366;28;20441;-68
2021/09/09 02:17:19;;;;;;;9.57;8.57;;;19.30;96.70;;;;;;4995305;28;20223;-69
2021/09/09 02:19:45;;;;;;;11.67;8.33;;;19.20;96.70;;;;;;4994530;28;20679;-70
2021/09/09 02:22:11;;;;;;;11.33;9.20;;;19.20;96.70;;;;;;5018205;28;20647;-70
2021/09/09 02:24:37;;;;;;;10.00;8.10;;;19.10;96.90;;;;;;4999538;28;20275;-69
2021/09/09 02:27:03;;;;;;;11.73;8.73;;;19.10;96.80;;;;;;4994729;28;20216;-68
2021/09/09 02:29:28;;;;;;;12.13;9.70;;;19.10;97.00;;;;;;4994411;28;20217;-69
2021/09/09 02:31:54;;;;;;;8.40;7.57;;;19.20;96.90;;;;;;5011600;28;20453;-69
2021/09/09 02:34:20;;;;;;;11.47;9.60;;;19.20;96.90;;;;;;4995026;28;20295;-69
2021/09/09 02:36:45;;;;;;;13.27;9.30;;;19.20;96.80;;;;;;5000093;28;20209;-69
2021/09/09 02:39:11;;;;;;;10.53;8.30;;;19.20;96.90;;;;;;5009573;28;20679;-69
2021/09/09 02:41:36;;;;;;;12.37;8.33;;;19.20;96.90;;;;;;5010943;28;20217;-70
2021/09/09 02:44:02;;;;;;;9.43;8.50;;;19.20;96.90;;;;;;5006804;28;20304;-69
2021/09/09 02:46:28;;;;;;;10.40;8.80;;;19.10;96.80;;;;;;5010813;28;20687;-69
2021/09/09 02:48:53;;;;;;;9.93;8.03;;;19.10;97.00;;;;;;4993950;28;20229;-69
2021/09/09 02:51:19;;;;;;;10.60;8.50;;;19.10;97.00;;;;;;5009499;28;20229;-70
2021/09/09 02:53:45;;;;;;;12.30;9.37;;;19.10;97.00;;;;;;4993792;28;20213;-69
2021/09/09 02:56:10;;;;;;;11.47;9.00;;;19.00;97.00;;;;;;5004183;28;20678;-70
2021/09/09 02:58:36;;;;;;;11.43;9.07;;;19.10;96.90;;;;;;5010806;28;20213;-69
2021/09/09 03:01:02;;;;;;;11.40;8.30;;;19.00;97.10;;;;;;4994087;28;20718;-68
2021/09/09 03:03:27;;;;;;;10.23;8.17;;;19.00;97.10;;;;;;4994000;28;20248;-70
2021/09/09 03:05:53;;;;;;;12.03;9.33;;;19.00;97.20;;;;;;5006488;28;20218;-70
2021/09/09 03:08:19;;;;;;;10.90;8.57;;;19.00;97.20;;;;;;4992657;28;20237;-70
2021/09/09 03:10:44;;;;;;;9.03;7.67;;;19.00;97.30;;;;;;4994259;28;20609;-70
2021/09/09 03:13:10;;;;;;;10.70;8.53;;;18.90;97.40;;;;;;4993820;28;20256;-70
2021/09/09 03:15:36;;;;;;;10.17;8.00;;;18.80;97.20;;;;;;4993723;28;20229;-69
2021/09/09 03:18:01;;;;;;;11.30;8.40;;;18.90;97.40;;;;;;5009998;28;20213;-69
2021/09/09 03:20:27;;;;;;;10.87;8.23;;;18.80;97.60;;;;;;4992626;28;20230;-69
2021/09/09 03:22:52;;;;;;;9.80;8.17;;;18.80;97.60;;;;;;5000430;28;20225;-68
2021/09/09 03:25:18;;;;;;;12.53;8.13;;;18.80;97.40;;;;;;4994051;28;20217;-69
2021/09/09 03:27:44;;;;;;;13.57;8.40;;;18.80;97.50;;;;;;4993111;28;20240;-69
2021/09/09 03:30:10;;;;;;;10.30;8.30;;;18.80;97.80;;;;;;5007215;28;20256;-70
2021/09/09 03:32:36;;;;;;;12.37;8.97;;;18.80;97.40;;;;;;5009801;28;20263;-70
2021/09/09 03:35:02;;;;;;;10.63;8.80;;;18.80;97.40;;;;;;5009768;28;20845;-69
2021/09/09 03:37:27;;;;;;;11.97;8.80;;;18.80;97.30;;;;;;5002166;28;20304;-69
2021/09/09 03:39:53;;;;;;;12.73;8.70;;;18.80;97.40;;;;;;4993060;28;20221;-69
2021/09/09 03:42:19;;;;;;;11.40;7.77;;;18.80;97.40;;;;;;4993350;28;20221;-70
2021/09/09 03:44:47;;;;;;;8.77;7.87;;;18.80;97.40;;;;;;4993933;28;20221;-70
2021/09/09 03:47:13;;;;;;;9.60;8.50;;;18.70;97.30;;;;;;5009244;28;20226;-69
2021/09/09 03:49:38;;;;;;;9.80;7.80;;;18.70;97.30;;;;;;5009991;28;20456;-69
2021/09/09 03:52:04;;;;;;;10.83;8.67;;;18.70;97.30;;;;;;5008460;28;20229;-69
2021/09/09 03:54:30;;;;;;;11.00;8.60;;;18.70;97.40;;;;;;5008100;28;20217;-69
2021/09/09 03:56:56;;;;;;;9.33;7.97;;;18.50;97.60;;;;;;5017166;28;20217;-70
2021/09/09 03:59:21;;;;;;;9.63;8.40;;;18.60;97.60;;;;;;5008266;28;20703;-69
2021/09/09 04:01:47;;;;;;;8.33;7.50;;;18.60;97.50;;;;;;5014437;28;20733;-70
2021/09/09 04:04:13;;;;;;;11.37;9.00;;;18.60;97.60;;;;;;4996270;28;20284;-69
2021/09/09 04:06:39;;;;;;;9.50;8.03;;;18.50;97.70;;;;;;5006124;28;20217;-69
2021/09/09 04:09:04;;;;;;;10.70;8.60;;;18.50;97.60;;;;;;4992980;28;20255;-69
2021/09/09 04:11:30;;;;;;;10.60;8.47;;;18.50;97.60;;;;;;5010891;28;20275;-69
2021/09/09 04:13:56;;;;;;;12.90;9.60;;;18.50;97.60;;;;;;5008953;28;20221;-69
2021/09/09 04:16:21;;;;;;;9.90;8.70;;;18.50;97.60;;;;;;4992680;28;20221;-70
2021/09/09 04:18:47;;;;;;;9.43;7.63;;;18.50;97.70;;;;;;4989422;28;20741;-69
2021/09/09 04:21:13;;;;;;;9.80;8.70;;;18.40;97.80;;;;;;5000063;28;20217;-70
2021/09/09 04:23:38;;;;;;;10.37;8.40;;;18.30;97.90;;;;;;5017587;28;20244;-69
2021/09/09 04:26:04;;;;;;;9.60;7.63;;;18.40;97.90;;;;;;4992887;28;20221;-70
2021/09/09 04:28:30;;;;;;;11.40;8.80;;;18.40;97.80;;;;;;4992503;28;20229;-69
2021/09/09 04:30:55;;;;;;;10.87;8.60;;;18.40;97.80;;;;;;4992408;28;20216;-69
2021/09/09 04:33:21;;;;;;;10.17;8.17;;;18.40;97.80;;;;;;5009205;28;20229;-69
2021/09/09 04:35:47;;;;;;;12.53;8.73;;;18.30;97.80;;;;;;5008781;28;20258;-70
2021/09/09 04:38:13;;;;;;;11.40;8.83;;;18.30;97.80;;;;;;5008178;28;20225;-70
2021/09/09 04:40:39;;;;;;;11.60;8.87;;;18.30;97.80;;;;;;5009353;28;20213;-69
2021/09/09 04:43:06;;;;;;;11.30;8.53;;;18.30;97.90;;;;;;5008334;28;20514;-69
2021/09/09 04:45:32;;;;;;;10.20;8.50;;;18.30;97.90;;;;;;5012784;28;20221;-70
2021/09/09 04:47:58;;;;;;;9.40;8.40;;;18.30;97.90;;;;;;4998269;28;20805;-70
2021/09/09 04:50:24;;;;;;;10.50;8.47;;;18.30;97.90;;;;;;5015456;28;20233;-70
2021/09/09 04:52:50;;;;;;;11.17;8.50;;;18.30;97.80;;;;;;4994777;28;20586;-70
2021/09/09 04:55:16;;;;;;;10.57;8.27;;;18.30;97.80;;;;;;5017158;28;20505;-70
2021/09/09 04:57:42;;;;;;;10.77;8.70;;;18.20;97.70;;;;;;5003279;28;20213;-70
2021/09/09 05:00:08;;;;;;;10.20;8.43;;;18.30;97.80;;;;;;5015326;28;20363;-69
2021/09/09 05:02:33;;;;;;;10.13;9.10;;;18.20;97.80;;;;;;5016493;28;20286;-70
2021/09/09 05:04:59;;;;;;;9.60;7.70;;;18.20;97.80;;;;;;4998976;28;20977;-70
2021/09/09 05:07:25;;;;;;;10.67;9.23;;;18.20;97.80;;;;;;5015616;28;20233;-70
2021/09/09 05:09:51;;;;;;;11.57;8.50;;;18.20;97.70;;;;;;5013997;28;20224;-70
2021/09/09 05:12:16;;;;;;;9.97;8.33;;;18.20;97.80;;;;;;5013698;28;20244;-70
2021/09/09 05:14:42;;;;;;;10.73;8.87;;;18.10;97.70;;;;;;5015225;28;20275;-70
2021/09/09 05:17:07;;;;;;;11.50;9.33;;;18.10;97.80;;;;;;4998704;28;20220;-69
2021/09/09 05:19:33;;;;;;;11.97;9.07;;;18.10;97.70;;;;;;4997858;28;20221;-69
2021/09/09 05:21:59;;;;;;;10.40;8.77;;;18.10;97.90;;;;;;5021031;28;20236;-69
2021/09/09 05:24:24;;;;;;;11.30;8.80;;;18.00;97.80;;;;;;5007969;28;20260;-69
2021/09/09 05:26:50;;;;;;;10.73;9.30;;;18.10;97.90;;;;;;4998590;28;20213;-70
2021/09/09 05:29:16;;;;;;;11.63;8.53;;;18.10;97.90;;;;;;5014584;28;20252;-69
2021/09/09 05:31:41;;;;;;;12.37;9.07;;;18.00;97.80;;;;;;4997613;28;20304;-69
2021/09/09 05:34:07;;;;;;;13.00;10.50;;;18.00;98.00;;;;;;5014465;28;20233;-69
2021/09/09 05:36:32;;;;;;;10.13;8.80;;;18.00;97.90;;;;;;5026322;28;20212;-70
2021/09/09 05:38:58;;;;;;;12.20;8.93;;;18.00;97.90;;;;;;5031555;28;20689;-69
2021/09/09 05:41:24;;;;;;;15.63;10.60;;;18.00;97.80;;;;;;4996893;28;20217;-69
2021/09/09 05:43:50;;;;;;;11.33;9.97;;;18.00;97.90;;;;;;4996396;28;20229;-70
2021/09/09 05:46:15;;;;;;;13.00;9.87;;;18.00;98.00;;;;;;4997440;28;20471;-69
2021/09/09 05:48:41;;;;;;;10.90;8.77;;;18.00;98.10;;;;;;4997230;28;20224;-69
2021/09/09 05:51:07;;;;;;;13.70;10.00;;;18.00;98.10;;;;;;4995551;28;20228;-70
2021/09/09 05:53:33;;;;;;;11.43;9.17;;;18.00;98.10;;;;;;4996174;28;20600;-70
2021/09/09 05:55:59;;;;;;;11.40;10.03;;;18.00;98.10;;;;;;5002967;28;20466;-70
2021/09/09 05:58:25;;;;;;;10.30;8.73;;;18.00;98.40;;;;;;4990448;28;20225;-70
2021/09/09 06:00:50;;;;;;;11.97;9.13;;;17.90;98.40;;;;;;5008808;28;20255;-70
2021/09/09 06:03:16;;;;;;;11.80;8.60;;;18.00;98.50;;;;;;4993666;28;20646;-70
2021/09/09 06:05:42;;;;;;;12.53;8.70;;;18.00;98.30;;;;;;4993829;28;20221;-69
2021/09/09 06:08:08;;;;;;;12.40;9.40;;;18.00;98.30;;;;;;5010059;28;20221;-70
2021/09/09 06:10:33;;;;;;;14.03;9.00;;;18.00;98.30;;;;;;5010454;28;20217;-70
2021/09/09 06:12:59;;;;;;;13.03;8.27;;;18.00;98.50;;;;;;5007832;28;20235;-69
2021/09/09 06:15:25;;;;;;;12.10;9.23;;;18.00;98.30;;;;;;4993356;28;20225;-69
2021/09/09 06:17:50;;;;;;;11.40;9.07;;;18.00;98.50;;;;;;4990117;28;20234;-70
2021/09/09 06:20:16;;;;;;;9.83;8.00;;;18.00;98.50;;;;;;5003382;28;20694;-69
2021/09/09 06:22:43;;;;;;;12.80;8.77;;;18.00;98.80;;;;;;5004535;28;20266;-69
2021/09/09 06:25:10;;;;;;;16.10;10.03;;;18.00;98.90;;;;;;5018692;28;20495;-70
2021/09/09 06:27:36;;;;;;;10.83;8.90;;;18.10;99.40;;;;;;5008590;28;20491;-70
2021/09/09 06:30:01;;;;;;;10.73;7.90;;;18.10;99.30;;;;;;5008407;28;20970;-70
2021/09/09 06:32:28;;;;;;;14.77;9.47;;;18.10;99.10;;;;;;5008611;28;20714;-70
2021/09/09 06:34:54;;;;;;;10.67;9.10;;;18.10;99.10;;;;;;5009479;28;20212;-70
2021/09/09 06:37:19;;;;;;;14.73;8.90;;;18.10;99.20;;;;;;5010093;28;20451;-70
2021/09/09 06:39:45;;;;;;;10.73;8.50;;;18.10;99.30;;;;;;4992914;28;20228;-70
2021/09/09 06:42:10;;;;;;;15.67;9.50;;;18.20;99.60;;;;;;5007773;28;20232;-70
2021/09/09 06:44:36;;;;;;;10.73;8.50;;;18.20;99.60;;;;;;5010012;28;20213;-70
2021/09/09 06:47:02;;;;;;;11.50;9.47;;;18.20;99.60;;;;;;4993035;28;20267;-71
2021/09/09 06:49:28;;;;;;;9.93;8.40;;;18.20;99.30;;;;;;5005922;28;20255;-70
2021/09/09 06:51:53;;;;;;;9.83;8.77;;;18.20;99.30;;;;;;4991461;28;20209;-69
2021/09/09 06:54:19;;;;;;;12.23;9.30;;;18.30;99.40;;;;;;4992630;28;20217;-70
2021/09/09 06:56:45;;;;;;;13.70;8.67;;;18.30;99.50;;;;;;4991416;28;20218;-70
2021/09/09 06:59:10;;;;;;;11.80;8.70;;;18.30;99.60;;;;;;4991597;28;20503;-70
2021/09/09 07:01:36;;;;;;;11.40;9.20;;;18.40;99.90;;;;;;5008203;28;20217;-69
2021/09/09 07:04:02;;;;;;;13.83;8.97;;;18.40;99.90;;;;;;4991135;28;20213;-70
2021/09/09 07:06:27;;;;;;;11.57;8.47;;;18.40;99.90;;;;;;5008457;28;20214;-70
2021/09/09 07:08:53;;;;;;;10.60;8.77;;;18.50;99.90;;;;;;4992254;28;20229;-70
2021/09/09 07:11:18;;;;;;;14.60;9.90;;;18.50;99.80;;;;;;5018008;28;20703;-70
2021/09/09 07:13:44;;;;;;;11.00;8.50;;;18.50;99.70;;;;;;5015127;28;20245;-70
2021/09/09 07:16:10;;;;;;;11.70;9.40;;;18.50;99.80;;;;;;4991536;28;20711;-70
2021/09/09 07:18:36;;;;;;;14.80;9.27;;;18.60;99.90;;;;;;4989098;28;20645;-70
2021/09/09 07:21:02;;;;;;;14.30;9.10;;;18.60;99.90;;;;;;5006889;28;20308;-70
2021/09/09 07:23:28;;;;;;;11.07;9.07;;;18.70;99.90;;;;;;4995178;28;20229;-70
2021/09/09 07:25:53;;;;;;;12.30;8.70;;;18.70;99.90;;;;;;5003535;28;20568;-69
2021/09/09 07:28:19;;;;;;;10.33;8.40;;;18.80;99.90;;;;;;5006600;28;20304;-70
2021/09/09 07:30:45;;;;;;;11.33;9.27;;;18.80;99.90;;;;;;5008035;28;20748;-70
2021/09/09 07:33:10;;;;;;;10.90;9.00;;;18.90;99.90;;;;;;5007872;28;20224;-70
2021/09/09 07:35:36;;;;;;;13.03;9.63;;;19.00;99.90;;;;;;4992668;28;20240;-70
2021/09/09 07:38:02;;;;;;;11.47;9.10;;;19.10;99.90;;;;;;5008882;28;20750;-69
2021/09/09 07:40:28;;;;;;;11.80;9.47;;;19.20;99.90;;;;;;5009503;28;20221;-70
2021/09/09 07:42:54;;;;;;;19.60;9.37;;;19.20;99.90;;;;;;5007126;28;20232;-69
2021/09/09 07:45:19;;;;;;;12.10;9.53;;;19.30;99.90;;;;;;4992256;28;20444;-70
2021/09/09 07:47:45;;;;;;;11.53;9.10;;;19.40;99.90;;;;;;5006343;28;20227;-70
2021/09/09 07:50:11;;;;;;;11.73;9.47;;;19.40;99.90;;;;;;4990370;28;20255;-70
2021/09/09 07:52:40;;;;;;;11.13;9.20;;;19.50;99.90;;;;;;4989802;28;20263;-70
2021/09/09 07:55:07;;;;;;;10.93;9.30;;;19.60;99.90;;;;;;4989740;28;20504;-69
2021/09/09 07:57:33;;;;;;;11.00;8.97;;;19.70;99.90;;;;;;5000964;28;20460;-70
2021/09/09 07:59:58;;;;;;;12.03;9.87;;;19.80;99.90;;;;;;4989628;28;20521;-70
2021/09/09 08:02:24;;;;;;;17.40;10.13;;;19.80;99.90;;;;;;5007135;28;20241;-70
2021/09/09 08:04:50;;;;;;;11.90;9.80;;;19.90;99.90;;;;;;5006224;28;20221;-70
2021/09/09 08:07:16;;;;;;;13.37;9.70;;;20.00;99.90;;;;;;5005124;28;20767;-70
2021/09/09 08:09:41;;;;;;;10.57;9.33;;;20.00;99.90;;;;;;4993128;28;20231;-70
2021/09/09 08:12:07;;;;;;;10.50;8.73;;;20.20;99.90;;;;;;5009192;28;20224;-69
2021/09/09 08:14:33;;;;;;;10.10;9.10;;;20.30;99.90;;;;;;5005766;28;20217;-70
2021/09/09 08:16:59;;;;;;;14.77;10.87;;;20.30;99.90;;;;;;4988438;28;20225;-69
2021/09/09 08:19:25;;;;;;;11.90;9.23;;;20.30;99.90;;;;;;5005690;28;20221;-70
2021/09/09 08:21:50;;;;;;;11.37;8.87;;;20.50;99.90;;;;;;4988076;28;20464;-69
2021/09/09 08:24:16;;;;;;;11.10;9.33;;;20.50;99.90;;;;;;4990095;28;20363;-70
2021/09/09 08:26:42;;;;;;;13.93;10.67;;;20.60;99.90;;;;;;4987924;28;20216;-71
2021/09/09 08:29:08;;;;;;;12.57;10.40;;;20.70;99.90;;;;;;4987892;28;20315;-70
2021/09/09 08:31:33;;;;;;;12.83;9.90;;;20.80;99.90;;;;;;4988852;28;20274;-70
2021/09/09 08:33:59;;;;;;;14.03;11.43;;;20.90;99.90;;;;;;4987722;28;20224;-69
2021/09/09 08:36:25;;;;;;;14.57;10.73;;;21.00;99.90;;;;;;5004492;28;20371;-70
2021/09/09 08:38:51;;;;;;;12.93;10.17;;;21.00;99.90;;;;;;4988403;28;20232;-70
2021/09/09 08:41:17;;;;;;;12.00;9.73;;;21.20;99.90;;;;;;4989506;28;20444;-70
2021/09/09 08:43:44;;;;;;;14.70;10.00;;;21.40;99.90;;;;;;4986841;28;20518;-69
2021/09/09 08:46:11;;;;;;;10.47;9.37;;;21.60;99.90;;;;;;4987103;28;20859;-70
2021/09/09 08:48:39;;;;;;;11.00;9.40;;;21.70;99.90;;;;;;4999782;28;21091;-70
2021/09/09 08:51:05;;;;;;;11.27;10.00;;;21.70;99.90;;;;;;5002641;28;20914;-70
2021/09/09 08:53:31;;;;;;;11.30;9.30;;;21.80;99.90;;;;;;4997092;28;20554;-70
2021/09/09 08:55:56;;;;;;;10.00;8.90;;;21.80;99.90;;;;;;5012725;28;20542;-68
2021/09/09 08:58:22;;;;;;;12.63;9.80;;;22.00;99.90;;;;;;5006020;28;20698;-70
2021/09/09 09:01:15;;;;;;;9.43;8.13;;;22.30;99.90;;;;;;5006430;28;20235;-71
2021/09/09 09:03:57;;;;;;;11.30;8.57;;;22.50;99.90;;;;;;4997622;28;20224;-70
2021/09/09 09:06:26;;;;;;;10.90;9.60;;;22.60;99.90;;;;;;4989819;28;21054;-70
2021/09/09 09:08:57;;;;;;;10.90;8.60;;;22.70;99.90;;;;;;5003103;28;20475;-70
2021/09/09 09:11:28;;;;;;;11.10;7.23;;;22.70;99.90;;;;;;5003515;28;20460;-69
2021/09/09 09:13:55;;;;;;;9.77;8.00;;;22.90;99.90;;;;;;5004152;28;20570;-69
2021/09/09 09:16:22;;;;;;;10.40;8.63;;;22.90;99.90;;;;;;4988524;28;20491;-70
2021/09/09 09:18:48;;;;;;;9.33;7.30;;;23.00;99.90;;;;;;4988969;28;20447;-70
2021/09/09 09:21:15;;;;;;;9.27;8.33;;;23.10;99.90;;;;;;4989195;28;20466;-70
2021/09/09 09:23:52;;;;;;;9.70;7.90;;;23.20;99.90;;;;;;5007758;28;20246;-71
2021/09/09 09:26:18;;;;;;;9.70;8.70;;;23.30;99.90;;;;;;5008884;28;20466;-71
2021/09/09 09:28:50;;;;;;;9.13;7.83;;;23.40;99.90;;;;;;4990247;28;20474;-71
2021/09/09 09:31:22;;;;;;;8.73;7.83;;;23.50;99.90;;;;;;4989313;28;20251;-70
2021/09/09 09:33:56;;;;;;;9.73;8.30;;;23.60;99.90;;;;;;5005837;28;20471;-70
2021/09/09 09:36:22;;;;;;;11.23;8.43;;;23.90;99.90;;;;;;5017028;28;20457;-70
2021/09/09 09:38:53;;;;;;;8.37;7.67;;;24.00;99.90;;;;;;5016794;28;20463;-71
2021/09/09 09:41:22;;;;;;;8.47;7.67;;;24.30;99.90;;;;;;4988545;28;20231;-70
2021/09/09 09:43:55;;;;;;;9.27;8.30;;;24.40;99.90;;;;;;4991492;28;20952;-70
2021/09/09 09:46:40;;;;;;;8.23;7.43;;;24.50;99.90;;;;;;4988947;28;20464;-70
2021/09/09 09:49:26;;;;;;;11.13;8.80;;;24.60;99.90;;;;;;4975285;28;20517;-70
2021/09/09 09:52:00;;;;;;;9.37;8.43;;;24.80;99.90;;;;;;5003433;28;20843;-70
2021/09/09 09:54:28;;;;;;;8.73;7.93;;;24.90;99.80;;;;;;4988977;28;20459;-71
2021/09/09 09:56:55;;;;;;;10.40;8.23;;;25.00;99.90;;;;;;5005230;28;20900;-71
2021/09/09 09:59:22;;;;;;;8.83;7.93;;;25.10;99.50;;;;;;4989255;28;20516;-71
2021/09/09 10:01:48;;;;;;;9.83;8.93;;;25.20;99.30;;;;;;5004189;28;20474;-70
2021/09/09 10:04:22;;;;;;;9.07;8.17;;;25.30;99.20;;;;;;4988763;28;20459;-70
2021/09/09 10:06:51;;;;;;;9.33;7.73;;;25.40;99.00;;;;;;4998363;28;21005;-70
2021/09/09 10:09:18;;;;;;;8.37;7.67;;;25.50;98.90;;;;;;4999606;28;20468;-70
2021/09/09 10:11:45;;;;;;;9.10;8.00;;;25.50;98.70;;;;;;5004873;28;20546;-71
2021/09/09 10:14:19;;;;;;;9.20;8.30;;;25.50;99.00;;;;;;5005626;28;20482;-70
2021/09/09 10:16:45;;;;;;;9.53;7.17;;;25.60;98.70;;;;;;5005170;28;20554;-70
2021/09/09 10:19:11;;;;;;;9.10;8.20;;;25.60;98.50;;;;;;4976905;28;20453;-71
2021/09/09 10:21:43;;;;;;;9.40;8.20;;;25.60;98.60;;;;;;4988634;28;20533;-70
2021/09/09 10:24:12;;;;;;;9.73;8.73;;;25.60;99.00;;;;;;4984551;28;20472;-71
2021/09/09 10:26:38;;;;;;;8.70;7.80;;;25.70;98.60;;;;;;5004576;28;20898;-70
2021/09/09 10:29:08;;;;;;;8.30;7.50;;;25.70;98.60;;;;;;4987971;28;20522;-70
2021/09/09 10:31:39;;;;;;;8.70;7.80;;;25.70;98.40;;;;;;5003397;28;20881;-71
2021/09/09 10:34:20;;;;;;;9.07;7.60;;;25.70;98.50;;;;;;4981774;28;20481;-70
2021/09/09 10:36:46;;;;;;;10.43;7.97;;;25.60;98.50;;;;;;5001942;28;20487;-71
2021/09/09 10:39:33;;;;;;;9.53;8.63;;;25.60;98.60;;;;;;5005651;28;20460;-70
2021/09/09 10:41:58;;;;;;;9.47;7.53;;;25.50;98.40;;;;;;5017769;28;20551;-70
2021/09/09 10:44:28;;;;;;;9.97;8.97;;;25.50;98.40;;;;;;5004851;28;20463;-71
2021/09/09 10:46:55;;;;;;;8.90;6.57;;;25.40;98.30;;;;;;4986133;28;20248;-70
2021/09/09 10:49:21;;;;;;;8.70;7.90;;;25.40;98.50;;;;;;4980758;28;20468;-71
2021/09/09 10:52:04;;;;;;;7.77;7.10;;;25.40;98.50;;;;;;5004504;28;20521;-71
2021/09/09 10:54:31;;;;;;;7.60;6.90;;;25.40;98.50;;;;;;5004755;28;20470;-70
2021/09/09 10:57:13;;;;;;;12.37;8.00;;;25.50;98.60;;;;;;4986127;28;21061;-71
2021/09/09 10:59:48;;;;;;;8.93;6.80;;;25.50;98.70;;;;;;5003633;28;21092;-71
2021/09/09 11:02:15;;;;;;;9.27;7.30;;;25.50;98.80;;;;;;4978947;28;20464;-71
2021/09/09 11:04:42;;;;;;;7.80;6.50;;;25.60;98.90;;;;;;5004173;28;20463;-71
2021/09/09 11:07:27;;;;;;;8.17;6.67;;;25.70;98.90;;;;;;4985425;28;20445;-70
2021/09/09 11:10:00;;;;;;;7.27;6.57;;;25.80;98.70;;;;;;5001309;28;20630;-70
2021/09/09 11:12:26;;;;;;;7.57;6.77;;;25.80;98.80;;;;;;5005074;28;20455;-71
2021/09/09 11:14:51;;;;;;;7.93;7.13;;;26.00;98.90;;;;;;4988106;28;20453;-70
2021/09/09 11:17:17;;;;;;;7.73;6.93;;;26.00;98.80;;;;;;5006379;28;20217;-70
2021/09/09 11:19:44;;;;;;;7.97;7.27;;;26.20;99.00;;;;;;5006929;28;20647;-70
2021/09/09 11:22:10;;;;;;;7.17;6.47;;;26.30;98.80;;;;;;5004686;28;20444;-70
2021/09/09 11:24:36;;;;;;;8.40;6.53;;;26.40;98.90;;;;;;4992040;28;20854;-70
2021/09/09 11:27:12;;;;;;;8.10;7.27;;;26.50;99.00;;;;;;4990196;28;20220;-69
2021/09/09 11:29:38;;;;;;;8.00;6.57;;;26.60;98.80;;;;;;5007153;28;20610;-71
2021/09/09 11:32:04;;;;;;;11.63;7.10;;;26.70;98.80;;;;;;5006271;28;20485;-71
2021/09/09 11:34:31;;;;;;;7.30;6.60;;;26.70;98.90;;;;;;4989418;28;20222;-71
2021/09/09 11:37:03;;;;;;;9.30;7.80;;;26.80;98.30;;;;;;5019771;28;20246;-70
2021/09/09 11:39:33;;;;;;;7.70;6.97;;;27.00;98.50;;;;;;5009541;28;20447;-71
2021/09/09 11:41:59;;;;;;;7.00;6.40;;;27.10;97.90;;;;;;5009673;28;20884;-71
2021/09/09 11:44:33;;;;;;;7.97;7.27;;;27.20;98.20;;;;;;4993463;28;20547;-71
2021/09/09 11:47:08;;;;;;;11.53;6.73;;;27.30;97.60;;;;;;4991865;28;20220;-70
2021/09/09 11:49:34;;;;;;;7.90;7.20;;;27.30;98.10;;;;;;4991833;28;20455;-70
2021/09/09 11:51:59;;;;;;;6.93;6.40;;;27.30;97.80;;;;;;4991207;28;20510;-71
2021/09/09 11:54:31;;;;;;;12.47;7.30;;;27.30;97.90;;;;;;4992750;28;20223;-71
2021/09/09 11:57:10;;;;;;;7.40;6.60;;;27.40;97.70;;;;;;4998370;28;20212;-70
2021/09/09 11:59:38;;;;;;;8.47;7.67;;;27.50;97.60;;;;;;4991012;28;20212;-71
2021/09/09 12:02:08;;;;;;;8.00;7.20;;;27.50;97.60;;;;;;4990927;28;20523;-71
2021/09/09 12:04:36;;;;;;;7.73;7.13;;;27.50;97.50;;;;;;4973448;28;20998;-71
2021/09/09 12:07:02;;;;;;;8.87;8.07;;;27.50;97.50;;;;;;4989245;28;20300;-70
2021/09/09 12:09:37;;;;;;;9.03;6.83;;;27.40;97.50;;;;;;5002841;28;20236;-71
2021/09/09 12:12:06;;;;;;;9.50;7.30;;;27.40;97.50;;;;;;4991804;28;20459;-71
2021/09/09 12:14:34;;;;;;;10.13;7.47;;;27.30;97.30;;;;;;5007561;28;20463;-71
2021/09/09 12:17:14;;;;;;;6.77;5.30;;;27.30;97.30;;;;;;5010204;28;20256;-70
2021/09/09 12:19:58;;;;;;;4.87;4.47;;;27.20;97.80;;;;;;4992611;28;20474;-71
2021/09/09 12:22:50;;;;;;;5.70;5.20;;;27.20;97.90;;;;;;5017957;28;20451;-71
2021/09/09 12:25:17;;;;;;;6.13;5.00;;;27.00;98.20;;;;;;5011374;28;20523;-71
2021/09/09 12:27:57;;;;;;;6.03;5.07;;;27.00;98.30;;;;;;5025959;28;20861;-70
2021/09/09 12:30:24;;;;;;;4.90;4.40;;;27.00;98.40;;;;;;5007352;28;20452;-71
2021/09/09 12:32:50;;;;;;;4.87;4.47;;;26.90;98.20;;;;;;4990877;28;20455;-71
2021/09/09 12:35:21;;;;;;;6.30;4.87;;;26.90;98.30;;;;;;5016336;28;20450;-70
2021/09/09 12:38:01;;;;;;;7.80;5.33;;;26.80;98.40;;;;;;5004135;28;20220;-71
2021/09/09 12:40:43;;;;;;;6.40;5.80;;;26.70;98.50;;;;;;5007747;28;20501;-71